createdAt,value
2023-04-22T00:00:43.571Z,49.44
2023-04-22T00:01:43.502Z,55.79
2023-04-22T00:02:43.611Z,56.25
2023-04-22T00:03:43.737Z,60.51
2023-04-22T00:04:43.761Z,51.96
2023-04-22T00:05:43.615Z,46.75
2023-04-22T00:06:43.457Z,47.64
2023-04-22T00:07:43.453Z,49.89
2023-04-22T00:08:43.475Z,51.85
2023-04-22T00:09:43.469Z,54.10
2023-04-22T00:10:43.443Z,46.78
2023-04-22T00:11:43.433Z,52.56
2023-04-22T00:12:43.441Z,49.57
2023-04-22T00:13:43.388Z,55.70
2023-04-22T00:14:43.393Z,51.99
2023-04-22T00:15:43.429Z,51.29
2023-04-22T00:16:43.527Z,53.47
2023-04-22T00:17:43.402Z,52.08
2023-04-22T00:18:43.393Z,60.06
2023-04-22T00:19:43.391Z,55.11
2023-04-22T00:20:43.365Z,45.13
2023-04-22T00:21:44.286Z,49.15
2023-04-22T00:22:43.412Z,49.63
2023-04-22T00:23:43.372Z,45.80
2023-04-22T00:24:43.334Z,60.73
2023-04-22T00:25:43.323Z,52.33
2023-04-22T00:26:43.347Z,60.30
2023-04-22T00:27:43.316Z,51.46
2023-04-22T00:28:43.318Z,54.14
2023-04-22T00:29:43.276Z,59.44
2023-04-22T00:30:43.267Z,44.74
2023-04-22T00:31:43.338Z,50.06
2023-04-22T00:32:43.337Z,49.77
2023-04-22T00:33:43.280Z,44.03
2023-04-22T00:34:43.244Z,48.54
2023-04-22T00:35:43.231Z,48.61
2023-04-22T00:36:43.216Z,49.70
2023-04-22T00:37:43.206Z,49.44
2023-04-22T00:38:43.212Z,43.75
2023-04-22T00:39:43.419Z,49.34
2023-04-22T00:40:43.226Z,44.05
2023-04-22T00:41:43.187Z,44.32
2023-04-22T00:42:43.158Z,43.59
2023-04-22T00:43:43.177Z,43.92
2023-04-22T00:44:43.194Z,54.07
2023-04-22T00:45:43.139Z,44.80
2023-04-22T00:46:43.203Z,50.65
2023-04-22T00:47:43.188Z,48.96
2023-04-22T00:48:43.205Z,54.91
2023-04-22T00:49:43.167Z,51.60
2023-04-22T00:50:43.110Z,49.83
2023-04-22T00:51:43.092Z,45.14
2023-04-22T00:52:43.105Z,48.79
2023-04-22T00:53:43.104Z,45.13
2023-04-22T00:54:43.095Z,49.61
2023-04-22T00:55:43.101Z,46.06
2023-04-22T00:56:43.063Z,55.81
2023-04-22T00:57:43.114Z,55.19
2023-04-22T00:58:43.082Z,60.11
2023-04-22T00:59:43.043Z,55.25
2023-04-22T01:00:43.067Z,55.17
2023-04-22T01:01:43.084Z,60.98
2023-04-22T01:02:43.169Z,46.20
2023-04-22T01:03:43.237Z,44.35
2023-04-22T01:04:43.036Z,50.85
2023-04-22T01:05:43.027Z,44.46
2023-04-22T01:06:43.011Z,46.33
2023-04-22T01:07:42.992Z,53.31
2023-04-22T01:08:42.967Z,44.91
2023-04-22T01:09:43.037Z,44.45
2023-04-22T01:10:42.989Z,49.45
2023-04-22T01:11:42.992Z,51.70
2023-04-22T01:12:43.041Z,57.50
2023-04-22T01:13:43.014Z,54.23
2023-04-22T01:14:42.920Z,49.29
2023-04-22T01:15:42.931Z,51.64
2023-04-22T01:16:42.966Z,57.46
2023-04-22T01:17:42.969Z,51.02
2023-04-22T01:18:42.901Z,48.63
2023-04-22T01:19:43.257Z,43.80
2023-04-22T01:20:42.904Z,44.99
2023-04-22T01:21:42.870Z,48.30
2023-04-22T01:22:42.885Z,55.29
2023-04-22T01:23:42.854Z,49.11
2023-04-22T01:24:42.841Z,43.59
2023-04-22T01:25:42.950Z,43.57
2023-04-22T01:26:42.894Z,50.09
2023-04-22T01:27:42.834Z,47.19
2023-04-22T01:28:42.866Z,49.69
2023-04-22T01:29:43.077Z,50.05
2023-04-22T01:30:42.828Z,55.74
2023-04-22T01:31:42.811Z,44.12
2023-04-22T01:32:42.832Z,50.02
2023-04-22T01:33:42.815Z,43.61
2023-04-22T01:34:42.941Z,44.47
2023-04-22T01:35:42.866Z,51.52
2023-04-22T01:36:42.798Z,53.91
2023-04-22T01:37:42.770Z,51.30
2023-04-22T01:38:42.871Z,50.10
2023-04-22T01:39:42.788Z,50.01
2023-04-22T01:40:42.764Z,52.38
2023-04-22T01:41:42.754Z,49.71
2023-04-22T01:42:42.741Z,51.95
2023-04-22T01:43:42.694Z,49.62
2023-04-22T01:44:42.718Z,46.33
2023-04-22T01:45:42.724Z,49.26
2023-04-22T01:46:42.693Z,46.26
2023-04-22T01:47:42.733Z,45.42
2023-04-22T01:48:42.741Z,45.54
2023-04-22T01:49:43.057Z,54.34
2023-04-22T01:50:42.664Z,46.07
2023-04-22T01:51:42.632Z,51.57
2023-04-22T01:52:42.648Z,45.59
2023-04-22T01:53:42.715Z,48.57
2023-04-22T01:54:42.653Z,50.36
2023-04-22T01:55:42.649Z,47.53
2023-04-22T01:56:42.637Z,47.40
2023-04-22T01:57:42.602Z,50.50
2023-04-22T01:58:42.588Z,46.34
2023-04-22T01:59:42.632Z,48.82
2023-04-22T02:00:42.587Z,52.21
2023-04-22T02:01:42.601Z,46.10
2023-04-22T02:02:42.625Z,45.35
2023-04-22T02:03:42.688Z,46.63
2023-04-22T02:04:42.675Z,56.01
2023-04-22T02:05:42.561Z,45.61
2023-04-22T02:06:42.568Z,44.78
2023-04-22T02:07:42.529Z,48.78
2023-04-22T02:08:42.521Z,43.86
2023-04-22T02:09:42.678Z,49.91
2023-04-22T02:10:42.498Z,45.16
2023-04-22T02:11:42.490Z,46.32
2023-04-22T02:12:42.532Z,52.90
2023-04-22T02:13:42.472Z,53.98
2023-04-22T02:14:42.460Z,48.60
2023-04-22T02:15:42.518Z,47.97
2023-04-22T02:16:42.461Z,50.42
2023-04-22T02:17:42.471Z,50.62
2023-04-22T02:18:42.441Z,48.43
2023-04-22T02:19:42.866Z,50.66
2023-04-22T02:20:42.423Z,49.78
2023-04-22T02:21:42.414Z,45.52
2023-04-22T02:22:42.440Z,48.47
2023-04-22T02:23:42.406Z,44.77
2023-04-22T02:25:14.859Z,50.50
2023-04-22T02:25:42.388Z,45.77
2023-04-22T02:26:42.385Z,49.53
2023-04-22T02:27:42.395Z,52.15
2023-04-22T02:28:42.356Z,44.22
2023-04-22T02:29:42.558Z,43.35
2023-04-22T02:30:42.376Z,48.93
2023-04-22T02:31:42.382Z,43.50
2023-04-22T02:32:42.331Z,48.26
2023-04-22T02:33:42.340Z,43.88
2023-04-22T02:34:42.317Z,44.78
2023-04-22T02:35:42.294Z,49.07
2023-04-22T02:36:42.303Z,45.00
2023-04-22T02:37:42.307Z,52.39
2023-04-22T02:38:42.304Z,46.46
2023-04-22T02:39:42.542Z,46.23
2023-04-22T02:40:42.988Z,47.21
2023-04-22T02:41:42.273Z,54.90
2023-04-22T02:42:42.263Z,47.81
2023-04-22T02:43:42.254Z,52.89
2023-04-22T02:44:42.249Z,50.69
2023-04-22T02:45:42.222Z,48.05
2023-04-22T02:46:42.277Z,47.32
2023-04-22T02:47:42.222Z,55.43
2023-04-22T02:48:42.211Z,51.62
2023-04-22T02:49:42.397Z,48.65
2023-04-22T02:50:42.186Z,58.33
2023-04-22T02:51:42.210Z,47.79
2023-04-22T02:52:42.166Z,53.52
2023-04-22T02:53:42.220Z,53.16
2023-04-22T02:54:42.171Z,52.10
2023-04-22T02:55:42.131Z,47.52
2023-04-22T02:56:42.161Z,52.72
2023-04-22T02:57:42.130Z,48.67
2023-04-22T02:58:42.120Z,52.47
2023-04-22T02:59:42.325Z,53.58
2023-04-22T03:00:42.207Z,48.45
2023-04-22T03:01:42.138Z,52.44
2023-04-22T03:02:42.258Z,53.39
2023-04-22T03:03:42.283Z,54.65
2023-04-22T03:04:42.099Z,51.36
2023-04-22T03:05:42.097Z,56.58
2023-04-22T03:06:42.074Z,55.14
2023-04-22T03:07:42.062Z,53.32
2023-04-22T03:08:42.052Z,52.85
2023-04-22T03:09:42.292Z,48.30
2023-04-22T03:10:42.022Z,49.95
2023-04-22T03:11:42.041Z,54.95
2023-04-22T03:12:42.036Z,52.04
2023-04-22T03:13:42.015Z,54.89
2023-04-22T03:14:42.004Z,50.20
2023-04-22T03:15:41.988Z,53.85
2023-04-22T03:16:42.050Z,51.49
2023-04-22T03:17:42.028Z,58.04
2023-04-22T03:18:41.975Z,47.06
2023-04-22T03:19:42.380Z,52.70
2023-04-22T03:20:41.979Z,47.45
2023-04-22T03:21:41.951Z,50.03
2023-04-22T03:22:42.014Z,50.40
2023-04-22T03:23:41.927Z,55.79
2023-04-22T03:24:41.914Z,56.03
2023-04-22T03:25:41.927Z,54.87
2023-04-22T03:26:41.893Z,57.14
2023-04-22T03:27:41.927Z,55.44
2023-04-22T03:28:41.932Z,58.91
2023-04-22T03:29:42.175Z,53.75
2023-04-22T03:30:41.879Z,53.61
2023-04-22T03:31:41.902Z,52.31
2023-04-22T03:32:41.916Z,52.22
2023-04-22T03:33:42.453Z,59.18
2023-04-22T03:34:41.858Z,53.13
2023-04-22T03:35:41.864Z,62.01
2023-04-22T03:36:41.841Z,60.90
2023-04-22T03:37:41.838Z,63.72
2023-04-22T03:38:41.829Z,57.37
2023-04-22T03:39:41.990Z,61.02
2023-04-22T03:40:41.797Z,57.85
2023-04-22T03:41:41.782Z,55.21
2023-04-22T03:42:41.793Z,61.05
2023-04-22T03:43:41.807Z,56.83
2023-04-22T03:44:41.752Z,57.65
2023-04-22T03:45:41.811Z,54.02
2023-04-22T03:46:41.779Z,48.23
2023-04-22T04:03:31.001Z,54.32
2023-04-22T04:04:30.664Z,54.69
2023-04-22T04:05:30.310Z,54.07
2023-04-22T04:06:30.192Z,54.47
2023-04-22T04:07:30.147Z,53.30
2023-04-22T04:08:30.162Z,49.26
2023-04-22T04:09:30.146Z,52.20
2023-04-22T04:10:30.111Z,57.76
2023-04-22T04:11:30.126Z,54.36
2023-04-22T04:12:30.121Z,51.71
2023-04-22T04:13:30.126Z,51.48
2023-04-22T04:14:30.098Z,48.44
2023-04-22T04:15:30.103Z,51.79
2023-04-22T04:16:30.219Z,54.36
2023-04-22T04:17:30.148Z,51.22
2023-04-22T04:18:30.069Z,57.96
2023-04-22T04:19:30.082Z,51.99
2023-04-22T04:20:30.100Z,56.95
2023-04-22T04:21:30.036Z,56.18
2023-04-22T04:22:30.040Z,59.21
2023-04-22T04:23:30.026Z,55.28
2023-04-22T04:24:30.064Z,54.69
2023-04-22T04:25:30.001Z,47.64
2023-04-22T04:26:30.009Z,54.76
2023-04-22T04:27:29.976Z,58.15
2023-04-22T04:28:29.969Z,52.83
2023-04-22T04:29:29.977Z,51.70
2023-04-22T04:30:32.356Z,51.80
2023-04-22T04:31:29.983Z,53.65
2023-04-22T04:32:30.083Z,54.55
2023-04-22T04:33:29.971Z,50.51
2023-04-22T04:34:29.922Z,48.60
2023-04-22T04:35:29.940Z,54.20
2023-04-22T04:36:29.945Z,58.86
2023-04-22T04:37:29.913Z,58.96
2023-04-22T04:38:29.926Z,55.95
2023-04-22T04:39:29.887Z,54.68
2023-04-22T04:40:29.944Z,61.40
2023-04-22T04:41:29.920Z,58.93
2023-04-22T04:42:29.885Z,50.47
2023-04-22T04:43:29.908Z,55.61
2023-04-22T04:44:29.888Z,56.93
2023-04-22T04:45:29.912Z,60.10
2023-04-22T04:46:29.942Z,53.72
2023-04-22T04:47:29.897Z,50.50
2023-04-22T04:48:29.837Z,61.40
2023-04-22T04:49:29.822Z,53.85
2023-04-22T04:50:29.839Z,63.38
2023-04-22T04:51:29.808Z,62.30
2023-04-22T04:52:29.791Z,52.61
2023-04-22T04:53:29.850Z,60.43
2023-04-22T04:54:29.760Z,53.75
2023-04-22T04:55:29.754Z,55.00
2023-04-22T04:56:29.771Z,52.81
2023-04-22T04:57:29.818Z,58.38
2023-04-22T04:58:29.754Z,59.09
2023-04-22T04:59:29.781Z,53.97
2023-04-22T05:00:29.761Z,56.97
2023-04-22T05:01:29.795Z,48.65
2023-04-22T05:02:29.791Z,56.04
2023-04-22T05:03:29.892Z,48.85
2023-04-22T05:04:30.913Z,53.62
2023-04-22T05:05:29.710Z,55.48
2023-04-22T05:06:29.840Z,52.50
2023-04-22T05:07:29.673Z,60.36
2023-04-22T05:08:29.700Z,52.72
2023-04-22T05:09:29.683Z,52.58
2023-04-22T05:10:29.649Z,58.77
2023-04-22T05:11:29.655Z,60.02
2023-04-22T05:12:29.644Z,59.88
2023-04-22T05:13:29.634Z,62.39
2023-04-22T05:14:29.664Z,55.72
2023-04-22T05:15:29.652Z,58.69
2023-04-22T05:16:29.684Z,62.33
2023-04-22T05:17:29.643Z,60.18
2023-04-22T05:18:29.597Z,56.56
2023-04-22T05:19:29.581Z,58.41
2023-04-22T05:20:29.599Z,56.44
2023-04-22T05:21:29.603Z,54.35
2023-04-22T05:22:29.584Z,56.64
2023-04-22T05:23:29.566Z,66.00
2023-04-22T05:24:29.572Z,66.98
2023-04-22T05:25:29.586Z,61.33
2023-04-22T05:26:29.570Z,58.19
2023-04-22T05:27:29.531Z,58.88
2023-04-22T05:28:29.555Z,56.11
2023-04-22T05:29:29.534Z,61.76
2023-04-22T05:30:29.508Z,59.78
2023-04-22T05:31:29.516Z,57.10
2023-04-22T05:32:29.525Z,63.21
2023-04-22T05:33:29.520Z,51.39
2023-04-22T05:34:29.488Z,47.61
2023-04-22T05:35:29.478Z,55.90
2023-04-22T05:36:31.394Z,51.10
2023-04-22T05:37:30.497Z,53.93
2023-04-22T05:38:29.514Z,56.90
2023-04-22T05:39:29.453Z,54.95
2023-04-22T05:41:02.206Z,62.32
2023-04-22T05:41:29.448Z,50.94
2023-04-22T05:42:29.462Z,54.35
2023-04-22T05:43:29.405Z,60.28
2023-04-22T05:44:29.430Z,49.64
2023-04-22T05:45:29.372Z,57.05
2023-04-22T05:46:29.483Z,58.48
2023-04-22T05:47:29.452Z,55.47
2023-04-22T05:48:29.363Z,52.26
2023-04-22T05:49:29.399Z,59.09
2023-04-22T05:50:29.371Z,59.10
2023-04-22T05:51:29.332Z,58.12
2023-04-22T05:52:29.345Z,56.21
2023-04-22T05:53:29.362Z,62.96
2023-04-22T05:54:29.416Z,63.77
2023-04-22T05:55:29.300Z,57.06
2023-04-22T05:56:29.307Z,56.78
2023-04-22T05:57:29.372Z,62.67
2023-04-22T05:58:29.342Z,66.28
2023-04-22T05:59:29.269Z,51.81
2023-04-22T06:00:29.320Z,59.73
2023-04-22T06:01:30.472Z,59.81
2023-04-22T06:02:29.446Z,61.48
2023-04-22T06:03:29.455Z,53.43
2023-04-22T06:04:29.749Z,66.80
2023-04-22T06:05:29.367Z,53.76
2023-04-22T06:06:29.272Z,60.45
2023-04-22T06:07:29.219Z,53.24
2023-04-22T06:08:29.205Z,60.36
2023-04-22T06:09:29.337Z,56.57
2023-04-22T06:10:29.263Z,57.06
2023-04-22T06:11:29.195Z,60.76
2023-04-22T06:12:29.218Z,63.39
2023-04-22T06:13:29.182Z,64.71
2023-04-22T06:14:29.173Z,61.31
2023-04-22T06:15:29.313Z,56.76
2023-04-22T06:16:29.146Z,61.13
2023-04-22T06:17:29.191Z,63.74
2023-04-22T06:18:29.525Z,63.45
2023-04-22T06:19:29.177Z,52.55
2023-04-22T06:20:29.133Z,61.75
2023-04-22T06:21:29.133Z,58.36
2023-04-22T06:22:29.115Z,66.97
2023-04-22T06:23:29.113Z,58.91
2023-04-22T06:24:29.076Z,62.33
2023-04-22T06:25:29.075Z,52.20
2023-04-22T06:26:29.047Z,63.29
2023-04-22T06:27:29.066Z,64.39
2023-04-22T06:28:29.058Z,64.17
2023-04-22T06:29:29.073Z,65.74
2023-04-22T06:30:29.051Z,65.40
2023-04-22T06:31:29.079Z,61.76
2023-04-22T06:32:29.065Z,62.82
2023-04-22T06:33:29.037Z,55.97
2023-04-22T06:34:29.048Z,61.27
2023-04-22T06:35:29.031Z,59.69
2023-04-22T06:36:30.544Z,61.25
2023-04-22T06:37:30.033Z,66.79
2023-04-22T06:38:29.041Z,66.88
2023-04-22T06:39:28.989Z,64.98
2023-04-22T06:40:28.962Z,60.07
2023-04-22T06:41:28.980Z,64.21
2023-04-22T06:42:29.053Z,61.29
2023-04-22T06:43:28.920Z,60.34
2023-04-22T06:44:28.958Z,63.96
2023-04-22T06:45:28.936Z,60.18
2023-04-22T06:46:28.937Z,60.40
2023-04-22T06:47:28.914Z,61.96
2023-04-22T06:48:28.903Z,65.13
2023-04-22T06:49:29.924Z,65.55
2023-04-22T06:50:28.914Z,61.67
2023-04-22T06:51:28.887Z,66.29
2023-04-22T06:52:28.909Z,54.26
2023-04-22T06:53:28.905Z,62.27
2023-04-22T06:54:28.921Z,63.43
2023-04-22T06:55:28.845Z,61.25
2023-04-22T06:56:28.849Z,63.94
2023-04-22T06:57:28.854Z,65.18
2023-04-22T06:58:28.873Z,59.20
2023-04-22T07:00:00.863Z,59.36
2023-04-22T07:00:28.830Z,60.97
2023-04-22T07:01:28.810Z,66.06
2023-04-22T07:02:28.800Z,67.05
2023-04-22T07:03:28.852Z,62.84
2023-04-22T07:04:28.853Z,61.24
2023-04-22T07:05:28.774Z,57.49
2023-04-22T07:06:28.733Z,57.58
2023-04-22T07:07:28.759Z,61.45
2023-04-22T07:08:28.734Z,66.54
2023-04-22T07:09:28.766Z,58.03
2023-04-22T07:10:28.729Z,62.91
2023-04-22T07:11:28.726Z,65.79
2023-04-22T07:12:28.726Z,61.41
2023-04-22T07:13:28.671Z,58.20
2023-04-22T07:14:28.679Z,62.59
2023-04-22T07:15:28.798Z,60.53
2023-04-22T07:16:28.797Z,65.23
2023-04-22T07:17:28.699Z,66.03
2023-04-22T07:18:28.690Z,62.66
2023-04-22T07:19:28.650Z,62.62
2023-04-22T07:20:28.716Z,65.77
2023-04-22T07:21:28.644Z,63.41
2023-04-22T07:22:28.620Z,68.03
2023-04-22T07:23:28.616Z,62.06
2023-04-22T07:24:28.623Z,64.05
2023-04-22T07:25:28.637Z,60.13
2023-04-22T07:26:28.621Z,65.37
2023-04-22T07:27:28.583Z,65.22
2023-04-22T07:28:28.603Z,62.26
2023-04-22T07:29:29.201Z,67.28
2023-04-22T07:30:28.560Z,63.82
2023-04-22T07:31:28.680Z,61.59
2023-04-22T07:32:28.594Z,66.31
2023-04-22T07:33:29.528Z,60.21
2023-04-22T07:34:28.536Z,61.50
2023-04-22T07:35:28.546Z,60.16
2023-04-22T07:36:28.555Z,64.66
2023-04-22T07:37:28.600Z,64.66
2023-04-22T07:38:28.556Z,63.03
2023-04-22T07:39:28.503Z,63.88
2023-04-22T07:40:28.500Z,65.63
2023-04-22T07:41:28.513Z,64.24
2023-04-22T07:42:28.535Z,52.31
2023-04-22T07:43:28.497Z,62.70
2023-04-22T07:44:28.490Z,64.20
2023-04-22T07:45:28.474Z,63.05
2023-04-22T07:46:28.480Z,63.59
2023-04-22T07:47:28.449Z,63.62
2023-04-22T07:48:28.453Z,65.07
2023-04-22T07:49:28.408Z,58.78
2023-04-22T07:50:28.420Z,61.69
2023-04-22T07:51:28.427Z,65.63
2023-04-22T07:52:28.390Z,63.05
2023-04-22T07:53:28.418Z,63.24
2023-04-22T07:54:28.395Z,59.95
2023-04-22T07:55:28.388Z,66.11
2023-04-22T07:56:28.423Z,64.99
2023-04-22T07:57:28.401Z,63.03
2023-04-22T07:58:28.357Z,62.32
2023-04-22T07:59:28.401Z,65.56
2023-04-22T08:00:28.396Z,66.01
2023-04-22T08:01:28.312Z,64.87
2023-04-22T08:02:28.405Z,65.63
2023-04-22T08:03:28.416Z,63.79
2023-04-22T08:04:28.666Z,63.72
2023-04-22T08:05:28.315Z,63.84
2023-04-22T08:06:28.309Z,67.99
2023-04-22T08:07:32.994Z,64.37
2023-04-22T08:08:30.302Z,66.27
2023-04-22T08:09:28.298Z,59.10
2023-04-22T08:10:28.260Z,57.84
2023-04-22T08:11:28.345Z,59.16
2023-04-22T08:12:28.249Z,65.45
2023-04-22T08:13:28.259Z,64.47
2023-04-22T08:14:28.398Z,59.73
2023-04-22T08:15:28.243Z,64.55
2023-04-22T08:16:28.324Z,65.05
2023-04-22T08:17:28.320Z,66.09
2023-04-22T08:18:28.248Z,65.00
2023-04-22T08:19:28.258Z,62.53
2023-04-22T08:20:28.202Z,60.17
2023-04-22T08:21:28.178Z,59.57
2023-04-22T08:22:28.166Z,64.38
2023-04-22T08:23:28.255Z,62.70
2023-04-22T08:24:29.199Z,64.26
2023-04-22T08:25:28.173Z,60.98
2023-04-22T08:26:28.150Z,58.87
2023-04-22T08:27:28.159Z,60.87
2023-04-22T08:28:28.224Z,59.79
2023-04-22T08:29:28.125Z,66.68
2023-04-22T08:30:28.144Z,66.90
2023-04-22T08:31:28.183Z,65.25
2023-04-22T08:32:28.116Z,60.71
2023-04-22T08:33:28.101Z,63.14
2023-04-22T08:34:28.110Z,63.46
2023-04-22T08:35:28.125Z,67.29
2023-04-22T08:36:28.100Z,65.32
2023-04-22T08:37:28.153Z,66.85
2023-04-22T08:38:28.097Z,61.83
2023-04-22T08:39:28.072Z,64.62
2023-04-22T08:40:28.061Z,62.35
2023-04-22T08:41:28.077Z,62.56
2023-04-22T08:42:28.072Z,67.35
2023-04-22T08:43:28.091Z,61.69
2023-04-22T08:44:28.026Z,63.04
2023-04-22T08:45:28.083Z,63.24
2023-04-22T08:46:28.763Z,64.32
2023-04-22T08:47:29.148Z,65.98
2023-04-22T08:48:28.013Z,62.30
2023-04-22T08:49:28.069Z,63.15
2023-04-22T08:50:27.975Z,61.54
2023-04-22T08:51:28.022Z,65.60
2023-04-22T08:52:27.973Z,64.20
2023-04-22T08:53:27.953Z,61.64
2023-04-22T08:54:28.024Z,61.66
2023-04-22T08:55:27.928Z,64.43
2023-04-22T08:56:27.913Z,63.20
2023-04-22T08:57:27.953Z,63.29
2023-04-22T08:58:27.920Z,62.58
2023-04-22T08:59:27.985Z,64.18
2023-04-22T09:00:27.961Z,60.82
2023-04-22T09:01:27.983Z,65.18
2023-04-22T09:02:27.936Z,63.68
2023-04-22T09:03:27.951Z,62.63
2023-04-22T09:04:27.916Z,59.18
2023-04-22T09:05:28.084Z,52.24
2023-04-22T09:06:28.895Z,57.92
2023-04-22T09:07:27.861Z,63.74
2023-04-22T09:08:27.940Z,65.16
2023-04-22T09:09:27.855Z,67.27
2023-04-22T09:10:27.801Z,65.98
2023-04-22T09:11:27.865Z,65.87
2023-04-22T09:12:27.818Z,58.13
2023-04-22T09:13:27.823Z,64.12
2023-04-22T09:14:27.781Z,67.62
2023-04-22T09:15:27.799Z,61.48
2023-04-22T09:16:27.781Z,60.46
2023-04-22T09:17:27.761Z,62.03
2023-04-22T09:18:27.760Z,60.66
2023-04-22T09:19:27.729Z,64.61
2023-04-22T09:20:27.767Z,62.95
2023-04-22T09:21:27.892Z,61.70
2023-04-22T09:22:27.721Z,58.19
2023-04-22T09:23:27.736Z,66.45
2023-04-22T09:24:27.804Z,63.70
2023-04-22T09:25:27.765Z,62.54
2023-04-22T09:26:27.685Z,60.99
2023-04-22T09:27:27.724Z,65.60
2023-04-22T09:28:27.880Z,67.26
2023-04-22T09:29:27.674Z,63.54
2023-04-22T09:30:27.684Z,63.77
2023-04-22T09:31:27.696Z,61.55
2023-04-22T09:32:27.703Z,62.28
2023-04-22T09:33:27.655Z,64.64
2023-04-22T09:34:27.649Z,65.93
2023-04-22T09:35:27.630Z,65.86
2023-04-22T09:36:27.629Z,64.13
2023-04-22T09:37:33.295Z,63.95
2023-04-22T09:38:29.651Z,62.84
2023-04-22T09:39:27.631Z,60.26
2023-04-22T09:40:27.599Z,66.58
2023-04-22T09:41:27.608Z,65.00
2023-04-22T09:42:27.607Z,62.08
2023-04-22T09:43:27.645Z,62.81
2023-04-22T09:44:27.943Z,64.14
2023-04-22T09:45:27.640Z,62.44
2023-04-22T09:46:27.845Z,65.62
2023-04-22T09:47:27.614Z,65.17
2023-04-22T09:48:27.564Z,64.05
2023-04-22T09:49:28.377Z,61.75
2023-04-22T09:50:27.542Z,64.22
2023-04-22T09:51:28.395Z,67.24
2023-04-22T09:52:27.596Z,61.79
2023-04-22T09:53:27.533Z,66.87
2023-04-22T09:54:27.532Z,63.02
2023-04-22T09:55:27.495Z,66.54
2023-04-22T09:56:27.464Z,65.16
2023-04-22T09:57:27.507Z,66.11
2023-04-22T09:58:27.459Z,64.06
2023-04-22T09:59:27.472Z,64.53
2023-04-22T10:00:27.457Z,61.62
2023-04-22T10:01:27.451Z,63.54
2023-04-22T10:02:27.527Z,65.72
2023-04-22T10:03:27.475Z,63.35
2023-04-22T10:04:27.539Z,63.53
2023-04-22T10:05:27.407Z,55.88
2023-04-22T10:06:27.410Z,61.34
2023-04-22T10:07:27.499Z,61.34
2023-04-22T10:08:27.365Z,59.70
2023-04-22T10:09:27.364Z,58.13
2023-04-22T10:10:27.380Z,65.98
2023-04-22T10:11:27.359Z,66.10
2023-04-22T10:12:35.310Z,64.29
2023-04-22T10:13:29.374Z,66.24
2023-04-22T10:14:27.340Z,61.36
2023-04-22T10:15:27.311Z,58.83
2023-04-22T10:16:27.328Z,65.15
2023-04-22T10:17:27.359Z,65.84
2023-04-22T10:18:27.356Z,59.93
2023-04-22T10:19:27.289Z,61.96
2023-04-22T10:20:27.307Z,65.64
2023-04-22T10:21:27.283Z,57.48
2023-04-22T10:22:27.310Z,61.97
2023-04-22T10:23:27.273Z,67.88
2023-04-22T10:24:27.348Z,65.64
2023-04-22T10:25:27.318Z,62.40
2023-04-22T10:26:27.247Z,62.03
2023-04-22T10:27:27.236Z,62.81
2023-04-22T10:28:27.261Z,65.42
2023-04-22T10:29:27.241Z,62.81
2023-04-22T10:30:27.242Z,65.16
2023-04-22T10:31:27.342Z,60.44
2023-04-22T10:32:27.256Z,67.25
2023-04-22T10:33:27.239Z,62.53
2023-04-22T10:34:27.204Z,65.09
2023-04-22T10:35:27.212Z,64.96
2023-04-22T10:36:27.181Z,61.20
2023-04-22T10:37:27.176Z,61.08
2023-04-22T10:38:27.152Z,65.37
2023-04-22T10:39:27.165Z,63.31
2023-04-22T10:40:27.149Z,62.27
2023-04-22T10:41:27.129Z,62.12
2023-04-22T10:42:27.117Z,64.31
2023-04-22T10:43:27.117Z,64.55
2023-04-22T10:44:27.125Z,61.32
2023-04-22T10:45:27.124Z,59.12
2023-04-22T10:46:27.171Z,61.09
2023-04-22T10:47:27.122Z,61.79
2023-04-22T10:48:27.097Z,64.63
2023-04-22T10:49:27.106Z,59.97
2023-04-22T10:50:27.137Z,63.48
2023-04-22T10:51:27.065Z,65.68
2023-04-22T10:52:27.074Z,64.20
2023-04-22T10:53:27.048Z,65.15
2023-04-22T10:54:29.348Z,63.68
2023-04-22T10:55:27.839Z,65.22
2023-04-22T10:56:27.020Z,63.82
2023-04-22T10:57:27.012Z,59.23
2023-04-22T10:58:27.032Z,63.98
2023-04-22T10:59:27.089Z,63.52
2023-04-22T11:00:29.512Z,62.32
2023-04-22T11:01:28.065Z,64.54
2023-04-22T11:02:27.127Z,64.59
2023-04-22T11:03:27.173Z,64.97
2023-04-22T11:04:27.905Z,66.23
2023-04-22T11:05:26.971Z,63.62
2023-04-22T11:06:26.976Z,64.69
2023-04-22T11:07:27.179Z,63.00
2023-04-22T11:08:26.941Z,64.56
2023-04-22T11:09:27.038Z,60.02
2023-04-22T11:10:26.936Z,65.28
2023-04-22T11:11:26.961Z,63.62
2023-04-22T11:12:26.912Z,64.72
2023-04-22T11:13:26.936Z,62.07
2023-04-22T11:14:26.872Z,59.46
2023-04-22T11:15:26.884Z,63.47
2023-04-22T11:16:26.908Z,65.94
2023-04-22T11:17:26.931Z,62.75
2023-04-22T11:18:26.889Z,64.20
2023-04-22T11:19:27.002Z,62.86
2023-04-22T11:20:26.857Z,58.53
2023-04-22T11:21:26.851Z,63.84
2023-04-22T11:22:26.855Z,58.35
2023-04-22T11:23:26.932Z,60.52
2023-04-22T11:24:27.757Z,61.65
2023-04-22T11:25:26.801Z,65.46
2023-04-22T11:26:26.779Z,63.63
2023-04-22T11:27:26.801Z,63.49
2023-04-22T11:28:26.813Z,65.43
2023-04-22T11:29:27.531Z,65.00
2023-04-22T11:30:26.774Z,62.71
2023-04-22T11:31:26.887Z,59.02
2023-04-22T11:32:26.763Z,62.23
2023-04-22T11:33:26.756Z,65.23
2023-04-22T11:34:26.758Z,62.97
2023-04-22T11:35:26.726Z,59.88
2023-04-22T11:36:26.706Z,64.82
2023-04-22T11:37:26.725Z,61.07
2023-04-22T11:38:26.686Z,63.60
2023-04-22T11:39:26.788Z,63.84
2023-04-22T11:40:29.910Z,67.25
2023-04-22T11:41:27.671Z,61.25
2023-04-22T11:42:26.657Z,65.24
2023-04-22T11:43:26.743Z,65.21
2023-04-22T11:44:26.671Z,66.30
2023-04-22T11:45:26.717Z,64.32
2023-04-22T11:46:26.686Z,57.79
2023-04-22T11:47:26.670Z,64.13
2023-04-22T11:48:26.672Z,61.47
2023-04-22T11:49:26.622Z,67.05
2023-04-22T11:50:26.625Z,65.41
2023-04-22T11:51:26.628Z,64.64
2023-04-22T11:52:26.637Z,64.92
2023-04-22T11:53:26.614Z,62.11
2023-04-22T11:54:26.612Z,63.93
2023-04-22T11:55:26.598Z,63.09
2023-04-22T11:56:26.572Z,67.20
2023-04-22T11:57:26.582Z,61.26
2023-04-22T11:58:26.552Z,61.68
2023-04-22T11:59:26.718Z,66.52
2023-04-22T12:00:26.553Z,62.46
2023-04-22T12:01:26.585Z,64.66
2023-04-22T12:02:26.644Z,61.11
2023-04-22T12:03:26.829Z,65.25
2023-04-22T12:04:26.519Z,67.36
2023-04-22T12:05:26.845Z,67.90
2023-04-22T12:06:26.500Z,69.32
2023-04-22T12:07:26.576Z,61.61
2023-04-22T12:08:26.545Z,63.77
2023-04-22T12:09:26.459Z,62.67
2023-04-22T12:10:26.435Z,64.42
2023-04-22T12:11:26.523Z,65.47
2023-04-22T12:12:26.471Z,63.98
2023-04-22T12:13:26.434Z,66.58
2023-04-22T12:14:26.540Z,64.29
2023-04-22T12:15:26.432Z,66.09
2023-04-22T12:16:26.908Z,63.20
2023-04-22T12:17:26.470Z,67.09
2023-04-22T12:18:26.396Z,65.65
2023-04-22T12:19:26.410Z,64.15
2023-04-22T12:20:26.370Z,65.31
2023-04-22T12:21:26.378Z,59.51
2023-04-22T12:22:26.345Z,62.85
2023-04-22T12:23:26.352Z,64.84
2023-04-22T12:24:26.346Z,65.03
2023-04-22T12:25:26.336Z,59.44
2023-04-22T12:26:27.584Z,58.64
2023-04-22T12:27:26.304Z,63.27
2023-04-22T12:28:26.316Z,65.74
2023-04-22T12:29:26.344Z,63.44
2023-04-22T12:30:26.271Z,65.29
2023-04-22T12:31:26.304Z,60.59
2023-04-22T12:32:26.286Z,64.23
2023-04-22T12:33:26.325Z,64.18
2023-04-22T12:34:26.293Z,65.60
2023-04-22T12:35:26.268Z,64.47
2023-04-22T12:36:26.636Z,62.14
2023-04-22T12:37:26.519Z,62.88
2023-04-22T12:38:26.218Z,61.96
2023-04-22T12:39:26.308Z,66.75
2023-04-22T12:40:26.209Z,59.46
2023-04-22T12:41:26.263Z,64.97
2023-04-22T12:42:26.260Z,61.77
2023-04-22T12:43:26.382Z,61.35
2023-04-22T12:44:26.164Z,65.63
2023-04-22T12:45:26.159Z,61.71
2023-04-22T12:46:27.070Z,63.48
2023-04-22T12:47:26.226Z,64.94
2023-04-22T12:48:26.143Z,62.00
2023-04-22T12:49:26.236Z,64.29
2023-04-22T12:50:26.151Z,65.16
2023-04-22T12:51:26.163Z,61.03
2023-04-22T12:52:26.173Z,61.03
2023-04-22T12:53:26.102Z,64.53
2023-04-22T12:54:26.123Z,64.81
2023-04-22T12:55:26.128Z,66.43
2023-04-22T12:56:26.106Z,67.67
2023-04-22T12:57:26.105Z,65.28
2023-04-22T12:58:26.127Z,63.65
2023-04-22T12:59:26.067Z,65.58
2023-04-22T13:00:26.960Z,60.15
2023-04-22T13:01:26.068Z,61.71
2023-04-22T13:02:26.337Z,64.95
2023-04-22T13:03:26.250Z,62.82
2023-04-22T13:04:26.106Z,65.40
2023-04-22T13:05:26.064Z,63.62
2023-04-22T13:06:26.034Z,64.48
2023-04-22T13:07:26.015Z,67.69
2023-04-22T13:08:25.980Z,64.27